sensor_id;sensor_type;location;lat;lon;timestamp;pressure;altitude;pressure_sealevel;temperature;humidity
7774;BME280;3931;42.260;23.116;2023-02-22T00:01:09;95494.84;;;12.71;49.64
7774;BME280;3931;42.260;23.116;2023-02-22T00:03:47;95491.97;;;13.18;49.04
7774;BME280;3931;42.260;23.116;2023-02-22T00:06:16;95495.06;;;13.42;47.84
7774;BME280;3931;42.260;23.116;2023-02-22T00:08:43;95492.53;;;13.96;47.07
7774;BME280;3931;42.260;23.116;2023-02-22T00:11:09;95489.44;;;13.33;47.78
7774;BME280;3931;42.260;23.116;2023-02-22T00:13:36;95496.03;;;13.48;47.45
7774;BME280;3931;42.260;23.116;2023-02-22T00:16:02;95493.66;;;13.68;47.40
7774;BME280;3931;42.260;23.116;2023-02-22T00:18:28;95493.94;;;13.61;47.46
7774;BME280;3931;42.260;23.116;2023-02-22T00:20:55;95497.03;;;13.63;46.89
7774;BME280;3931;42.260;23.116;2023-02-22T00:23:25;95496.03;;;13.04;48.37
7774;BME280;3931;42.260;23.116;2023-02-22T00:25:54;95491.34;;;13.14;48.62
7774;BME280;3931;42.260;23.116;2023-02-22T00:28:21;95484.31;;;12.32;49.91
7774;BME280;3931;42.260;23.116;2023-02-22T00:30:49;95493.81;;;12.09;50.03
7774;BME280;3931;42.260;23.116;2023-02-22T00:33:16;95490.88;;;12.38;50.79
7774;BME280;3931;42.260;23.116;2023-02-22T00:35:44;95487.69;;;12.83;49.64
7774;BME280;3931;42.260;23.116;2023-02-22T00:38:11;95492.06;;;12.03;50.68
7774;BME280;3931;42.260;23.116;2023-02-22T00:40:37;95491.22;;;12.27;50.84
7774;BME280;3931;42.260;23.116;2023-02-22T00:43:05;95489.59;;;11.92;51.32
7774;BME280;3931;42.260;23.116;2023-02-22T00:45:34;95488.66;;;12.89;50.10
7774;BME280;3931;42.260;23.116;2023-02-22T00:48:01;95486.16;;;12.48;50.34
7774;BME280;3931;42.260;23.116;2023-02-22T00:50:29;95490.94;;;13.03;49.99
7774;BME280;3931;42.260;23.116;2023-02-22T00:52:56;95480.38;;;12.55;48.67
7774;BME280;3931;42.260;23.116;2023-02-22T00:55:24;95483.75;;;12.71;50.21
7774;BME280;3931;42.260;23.116;2023-02-22T00:57:50;95489.00;;;13.12;48.73
7774;BME280;3931;42.260;23.116;2023-02-22T01:00:19;95484.44;;;13.49;47.64
7774;BME280;3931;42.260;23.116;2023-02-22T01:02:46;95479.41;;;12.70;49.35
7774;BME280;3931;42.260;23.116;2023-02-22T01:05:16;95484.00;;;12.64;50.34
7774;BME280;3931;42.260;23.116;2023-02-22T01:07:43;95477.81;;;12.82;49.41
7774;BME280;3931;42.260;23.116;2023-02-22T01:10:10;95472.66;;;12.93;49.64
7774;BME280;3931;42.260;23.116;2023-02-22T01:12:36;95479.38;;;13.04;49.97
7774;BME280;3931;42.260;23.116;2023-02-22T01:15:04;95471.94;;;13.01;49.97
7774;BME280;3931;42.260;23.116;2023-02-22T01:17:31;95470.00;;;13.33;48.57
7774;BME280;3931;42.260;23.116;2023-02-22T01:19:57;95478.28;;;13.24;49.29
7774;BME280;3931;42.260;23.116;2023-02-22T01:22:23;95468.09;;;13.21;49.06
7774;BME280;3931;42.260;23.116;2023-02-22T01:24:49;95469.94;;;13.02;48.29
7774;BME280;3931;42.260;23.116;2023-02-22T01:27:16;95464.16;;;13.09;49.18
7774;BME280;3931;42.260;23.116;2023-02-22T01:29:43;95465.16;;;13.24;48.88
7774;BME280;3931;42.260;23.116;2023-02-22T01:32:09;95461.94;;;13.56;48.10
7774;BME280;3931;42.260;23.116;2023-02-22T01:34:37;95463.53;;;13.36;48.44
7774;BME280;3931;42.260;23.116;2023-02-22T01:37:03;95462.84;;;13.23;48.53
7774;BME280;3931;42.260;23.116;2023-02-22T01:39:30;95463.44;;;13.48;48.87
7774;BME280;3931;42.260;23.116;2023-02-22T01:41:56;95454.66;;;13.50;48.54
7774;BME280;3931;42.260;23.116;2023-02-22T01:44:27;95449.81;;;12.33;49.76
7774;BME280;3931;42.260;23.116;2023-02-22T01:46:54;95453.53;;;12.52;50.73
7774;BME280;3931;42.260;23.116;2023-02-22T01:49:21;95464.97;;;12.75;51.15
7774;BME280;3931;42.260;23.116;2023-02-22T01:51:50;95468.44;;;11.35;53.29
7774;BME280;3931;42.260;23.116;2023-02-22T01:54:20;95465.28;;;10.95;55.13
7774;BME280;3931;42.260;23.116;2023-02-22T01:56:55;95462.66;;;11.17;55.14
7774;BME280;3931;42.260;23.116;2023-02-22T01:59:26;95460.28;;;12.16;53.03
7774;BME280;3931;42.260;23.116;2023-02-22T02:01:54;95460.81;;;12.24;52.22
7774;BME280;3931;42.260;23.116;2023-02-22T02:04:22;95456.50;;;11.76;51.91
7774;BME280;3931;42.260;23.116;2023-02-22T02:06:51;95460.72;;;10.89;56.00
7774;BME280;3931;42.260;23.116;2023-02-22T02:09:22;95465.09;;;11.15;55.57
7774;BME280;3931;42.260;23.116;2023-02-22T02:11:53;95458.88;;;11.11;56.30
7774;BME280;3931;42.260;23.116;2023-02-22T02:14:20;95447.63;;;11.68;55.03
7774;BME280;3931;42.260;23.116;2023-02-22T02:16:47;95454.91;;;11.88;53.31
7774;BME280;3931;42.260;23.116;2023-02-22T02:19:40;95461.56;;;12.37;51.83
7774;BME280;3931;42.260;23.116;2023-02-22T02:22:19;95454.44;;;12.02;52.43
7774;BME280;3931;42.260;23.116;2023-02-22T02:25:32;95456.91;;;11.87;53.42
7774;BME280;3931;42.260;23.116;2023-02-22T02:28:41;95464.88;;;11.98;52.16
7774;BME280;3931;42.260;23.116;2023-02-22T02:31:30;95457.72;;;12.22;51.13
7774;BME280;3931;42.260;23.116;2023-02-22T02:34:04;95466.50;;;12.20;51.48
7774;BME280;3931;42.260;23.116;2023-02-22T02:36:38;95466.53;;;11.95;51.62
7774;BME280;3931;42.260;23.116;2023-02-22T02:39:17;95462.06;;;10.97;54.96
7774;BME280;3931;42.260;23.116;2023-02-22T02:41:48;95472.94;;;11.04;55.21
7774;BME280;3931;42.260;23.116;2023-02-22T02:44:19;95470.72;;;10.13;60.11
7774;BME280;3931;42.260;23.116;2023-02-22T02:46:49;95469.25;;;11.07;56.92
7774;BME280;3931;42.260;23.116;2023-02-22T02:49:23;95473.34;;;10.00;59.14
7774;BME280;3931;42.260;23.116;2023-02-22T02:51:52;95470.59;;;10.00;58.27
7774;BME280;3931;42.260;23.116;2023-02-22T02:54:19;95473.59;;;9.41;62.29
7774;BME280;3931;42.260;23.116;2023-02-22T02:56:47;95476.72;;;9.43;63.00
7774;BME280;3931;42.260;23.116;2023-02-22T02:59:27;95476.03;;;9.04;65.04
7774;BME280;3931;42.260;23.116;2023-02-22T03:02:06;95477.94;;;9.59;61.47
7774;BME280;3931;42.260;23.116;2023-02-22T03:04:47;95480.56;;;8.94;68.24
7774;BME280;3931;42.260;23.116;2023-02-22T03:07:34;95478.53;;;10.31;63.97
7774;BME280;3931;42.260;23.116;2023-02-22T03:10:24;95475.28;;;11.43;57.14
7774;BME280;3931;42.260;23.116;2023-02-22T03:12:58;95485.09;;;11.73;56.07
7774;BME280;3931;42.260;23.116;2023-02-22T03:15:35;95482.19;;;11.64;55.28
7774;BME280;3931;42.260;23.116;2023-02-22T03:18:06;95482.41;;;11.69;53.74
7774;BME280;3931;42.260;23.116;2023-02-22T03:20:41;95476.31;;;11.75;54.70
7774;BME280;3931;42.260;23.116;2023-02-22T03:23:12;95484.53;;;11.78;54.35
7774;BME280;3931;42.260;23.116;2023-02-22T03:25:44;95479.25;;;12.18;52.48
7774;BME280;3931;42.260;23.116;2023-02-22T03:28:15;95492.38;;;11.92;52.53
7774;BME280;3931;42.260;23.116;2023-02-22T03:30:45;95485.25;;;12.16;51.97
7774;BME280;3931;42.260;23.116;2023-02-22T03:33:15;95496.72;;;11.68;54.00
7774;BME280;3931;42.260;23.116;2023-02-22T03:35:47;95496.94;;;11.74;53.39
7774;BME280;3931;42.260;23.116;2023-02-22T03:38:16;95497.16;;;11.92;52.96
7774;BME280;3931;42.260;23.116;2023-02-22T03:40:47;95497.25;;;12.01;53.54
7774;BME280;3931;42.260;23.116;2023-02-22T03:43:19;95500.84;;;11.76;53.95
7774;BME280;3931;42.260;23.116;2023-02-22T03:45:47;95501.03;;;11.94;53.30
7774;BME280;3931;42.260;23.116;2023-02-22T03:48:21;95500.00;;;12.13;52.55
7774;BME280;3931;42.260;23.116;2023-02-22T03:50:51;95505.56;;;12.01;52.44
7774;BME280;3931;42.260;23.116;2023-02-22T03:53:17;95503.59;;;11.76;52.66
7774;BME280;3931;42.260;23.116;2023-02-22T03:55:45;95510.03;;;11.73;53.26
7774;BME280;3931;42.260;23.116;2023-02-22T03:58:12;95499.88;;;11.41;54.35
7774;BME280;3931;42.260;23.116;2023-02-22T04:00:39;95498.22;;;11.44;54.05
7774;BME280;3931;42.260;23.116;2023-02-22T04:03:09;95509.09;;;11.51;53.87
7774;BME280;3931;42.260;23.116;2023-02-22T04:05:35;95502.91;;;11.97;52.80
7774;BME280;3931;42.260;23.116;2023-02-22T04:08:02;95502.16;;;11.72;53.48
7774;BME280;3931;42.260;23.116;2023-02-22T04:10:28;95498.06;;;11.89;53.04
7774;BME280;3931;42.260;23.116;2023-02-22T04:12:54;95506.81;;;11.75;51.63
7774;BME280;3931;42.260;23.116;2023-02-22T04:15:22;95494.13;;;11.99;52.24
7774;BME280;3931;42.260;23.116;2023-02-22T04:17:48;95499.88;;;12.17;51.74
7774;BME280;3931;42.260;23.116;2023-02-22T04:20:17;95503.53;;;12.26;51.40
7774;BME280;3931;42.260;23.116;2023-02-22T04:22:44;95508.69;;;11.90;50.84
7774;BME280;3931;42.260;23.116;2023-02-22T04:25:12;95504.09;;;11.46;52.13
7774;BME280;3931;42.260;23.116;2023-02-22T04:27:38;95509.66;;;11.58;51.70
7774;BME280;3931;42.260;23.116;2023-02-22T04:30:05;95507.56;;;11.88;51.11
7774;BME280;3931;42.260;23.116;2023-02-22T04:32:31;95509.72;;;11.30;52.05
7774;BME280;3931;42.260;23.116;2023-02-22T04:34:57;95503.50;;;11.13;52.59
7774;BME280;3931;42.260;23.116;2023-02-22T04:37:23;95507.88;;;11.52;51.85
7774;BME280;3931;42.260;23.116;2023-02-22T04:39:49;95505.84;;;12.28;49.82
7774;BME280;3931;42.260;23.116;2023-02-22T04:42:15;95511.88;;;12.01;50.58
7774;BME280;3931;42.260;23.116;2023-02-22T04:44:41;95509.63;;;12.34;48.88
7774;BME280;3931;42.260;23.116;2023-02-22T04:47:07;95507.69;;;12.09;50.00
7774;BME280;3931;42.260;23.116;2023-02-22T04:49:33;95513.78;;;11.66;50.48
7774;BME280;3931;42.260;23.116;2023-02-22T04:51:59;95516.84;;;11.31;51.64
7774;BME280;3931;42.260;23.116;2023-02-22T04:54:25;95516.13;;;11.68;51.87
7774;BME280;3931;42.260;23.116;2023-02-22T04:56:51;95511.97;;;11.35;52.19
7774;BME280;3931;42.260;23.116;2023-02-22T04:59:18;95519.66;;;11.02;53.45
7774;BME280;3931;42.260;23.116;2023-02-22T05:01:44;95514.44;;;11.04;53.55
7774;BME280;3931;42.260;23.116;2023-02-22T05:04:10;95506.84;;;10.79;54.04
7774;BME280;3931;42.260;23.116;2023-02-22T05:06:36;95512.47;;;11.17;53.32
7774;BME280;3931;42.260;23.116;2023-02-22T05:09:03;95516.72;;;11.34;52.80
7774;BME280;3931;42.260;23.116;2023-02-22T05:11:29;95527.72;;;11.50;52.58
7774;BME280;3931;42.260;23.116;2023-02-22T05:13:55;95525.41;;;11.61;51.97
7774;BME280;3931;42.260;23.116;2023-02-22T05:16:22;95520.28;;;11.47;52.09
7774;BME280;3931;42.260;23.116;2023-02-22T05:18:48;95515.91;;;11.21;53.43
7774;BME280;3931;42.260;23.116;2023-02-22T05:21:14;95522.41;;;11.56;52.22
7774;BME280;3931;42.260;23.116;2023-02-22T05:23:40;95521.22;;;11.69;51.47
7774;BME280;3931;42.260;23.116;2023-02-22T05:26:06;95526.50;;;11.64;51.66
7774;BME280;3931;42.260;23.116;2023-02-22T05:28:32;95530.75;;;11.27;53.03
7774;BME280;3931;42.260;23.116;2023-02-22T05:30:58;95528.81;;;10.99;53.13
7774;BME280;3931;42.260;23.116;2023-02-22T05:33:25;95535.75;;;11.20;52.47
7774;BME280;3931;42.260;23.116;2023-02-22T05:35:51;95532.09;;;11.23;52.74
7774;BME280;3931;42.260;23.116;2023-02-22T05:38:17;95546.28;;;11.25;53.41
7774;BME280;3931;42.260;23.116;2023-02-22T05:40:43;95537.19;;;11.78;51.79
7774;BME280;3931;42.260;23.116;2023-02-22T05:43:09;95550.44;;;11.04;53.19
7774;BME280;3931;42.260;23.116;2023-02-22T05:45:35;95541.00;;;11.02;53.99
7774;BME280;3931;42.260;23.116;2023-02-22T05:48:02;95554.06;;;11.01;53.99
7774;BME280;3931;42.260;23.116;2023-02-22T05:50:28;95556.13;;;11.13;54.35
7774;BME280;3931;42.260;23.116;2023-02-22T05:52:54;95550.53;;;11.54;53.03
7774;BME280;3931;42.260;23.116;2023-02-22T05:55:22;95569.91;;;11.29;53.30
7774;BME280;3931;42.260;23.116;2023-02-22T05:57:48;95566.47;;;10.52;54.26
7774;BME280;3931;42.260;23.116;2023-02-22T06:00:17;95559.03;;;10.93;54.01
7774;BME280;3931;42.260;23.116;2023-02-22T06:02:43;95554.16;;;12.65;49.90
7774;BME280;3931;42.260;23.116;2023-02-22T06:05:09;95556.78;;;15.59;44.48
7774;BME280;3931;42.260;23.116;2023-02-22T06:07:36;95553.97;;;18.05;39.76
7774;BME280;3931;42.260;23.116;2023-02-22T06:10:02;95546.88;;;19.80;36.68
7774;BME280;3931;42.260;23.116;2023-02-22T06:12:29;95557.66;;;20.75;35.02
7774;BME280;3931;42.260;23.116;2023-02-22T06:14:55;95562.53;;;21.92;33.48
7774;BME280;3931;42.260;23.116;2023-02-22T06:17:21;95569.81;;;21.56;33.26
7774;BME280;3931;42.260;23.116;2023-02-22T06:19:47;95565.78;;;21.68;33.53
7774;BME280;3931;42.260;23.116;2023-02-22T06:22:15;95566.91;;;22.04;32.42
7774;BME280;3931;42.260;23.116;2023-02-22T06:24:42;95562.56;;;22.59;31.84
7774;BME280;3931;42.260;23.116;2023-02-22T06:27:08;95564.06;;;22.93;31.59
7774;BME280;3931;42.260;23.116;2023-02-22T06:29:34;95560.50;;;22.15;32.20
7774;BME280;3931;42.260;23.116;2023-02-22T06:32:00;95569.94;;;23.06;31.18
7774;BME280;3931;42.260;23.116;2023-02-22T06:34:27;95575.97;;;24.06;30.22
7774;BME280;3931;42.260;23.116;2023-02-22T06:36:53;95572.50;;;23.83;30.49
7774;BME280;3931;42.260;23.116;2023-02-22T06:39:19;95567.59;;;24.30;30.30
7774;BME280;3931;42.260;23.116;2023-02-22T06:41:46;95567.28;;;23.93;30.09
7774;BME280;3931;42.260;23.116;2023-02-22T06:44:13;95571.06;;;23.55;30.20
7774;BME280;3931;42.260;23.116;2023-02-22T06:46:47;95561.84;;;23.54;30.28
7774;BME280;3931;42.260;23.116;2023-02-22T06:49:15;95561.84;;;24.06;30.19
7774;BME280;3931;42.260;23.116;2023-02-22T06:51:41;95568.97;;;22.09;31.48
7774;BME280;3931;42.260;23.116;2023-02-22T06:54:07;95568.19;;;22.47;31.50
7774;BME280;3931;42.260;23.116;2023-02-22T06:56:33;95567.84;;;21.09;32.59
7774;BME280;3931;42.260;23.116;2023-02-22T06:59:00;95573.78;;;19.40;34.90
7774;BME280;3931;42.260;23.116;2023-02-22T07:01:26;95558.56;;;20.55;34.55
7774;BME280;3931;42.260;23.116;2023-02-22T07:03:52;95556.47;;;21.40;33.62
7774;BME280;3931;42.260;23.116;2023-02-22T07:06:19;95560.75;;;22.06;32.48
7774;BME280;3931;42.260;23.116;2023-02-22T07:08:45;95573.41;;;21.51;33.06
7774;BME280;3931;42.260;23.116;2023-02-22T07:11:11;95558.28;;;20.95;33.93
7774;BME280;3931;42.260;23.116;2023-02-22T07:13:37;95557.13;;;20.08;34.80
7774;BME280;3931;42.260;23.116;2023-02-22T07:16:05;95560.91;;;19.14;35.97
7774;BME280;3931;42.260;23.116;2023-02-22T07:18:31;95566.88;;;19.21;36.49
7774;BME280;3931;42.260;23.116;2023-02-22T07:20:57;95562.13;;;19.27;36.96
7774;BME280;3931;42.260;23.116;2023-02-22T07:23:23;95559.97;;;19.62;36.61
7774;BME280;3931;42.260;23.116;2023-02-22T07:25:49;95556.41;;;18.81;36.97
7774;BME280;3931;42.260;23.116;2023-02-22T07:28:15;95553.97;;;19.09;37.79
7774;BME280;3931;42.260;23.116;2023-02-22T07:30:41;95550.34;;;18.34;38.12
7774;BME280;3931;42.260;23.116;2023-02-22T07:33:10;95551.13;;;18.19;39.07
7774;BME280;3931;42.260;23.116;2023-02-22T07:35:38;95543.28;;;18.38;39.25
7774;BME280;3931;42.260;23.116;2023-02-22T07:38:08;95547.59;;;18.88;38.23
7774;BME280;3931;42.260;23.116;2023-02-22T07:40:35;95546.72;;;18.62;38.41
7774;BME280;3931;42.260;23.116;2023-02-22T07:43:03;95545.16;;;18.96;38.31
7774;BME280;3931;42.260;23.116;2023-02-22T07:45:30;95542.19;;;18.50;38.60
7774;BME280;3931;42.260;23.116;2023-02-22T07:47:57;95531.91;;;17.39;40.21
7774;BME280;3931;42.260;23.116;2023-02-22T07:50:26;95534.47;;;17.67;40.39
7774;BME280;3931;42.260;23.116;2023-02-22T07:52:55;95540.44;;;18.18;40.36
7774;BME280;3931;42.260;23.116;2023-02-22T07:55:24;95523.47;;;18.42;39.82
7774;BME280;3931;42.260;23.116;2023-02-22T07:57:52;95526.94;;;18.51;39.97
7774;BME280;3931;42.260;23.116;2023-02-22T08:00:22;95521.63;;;19.54;38.53
7774;BME280;3931;42.260;23.116;2023-02-22T08:02:48;95524.44;;;19.54;37.70
7774;BME280;3931;42.260;23.116;2023-02-22T08:05:15;95520.84;;;19.53;38.27
7774;BME280;3931;42.260;23.116;2023-02-22T08:07:42;95514.81;;;20.17;37.75
7774;BME280;3931;42.260;23.116;2023-02-22T08:10:08;95516.97;;;20.28;37.54
7774;BME280;3931;42.260;23.116;2023-02-22T08:12:36;95501.53;;;20.97;36.88
7774;BME280;3931;42.260;23.116;2023-02-22T08:15:03;95514.66;;;21.11;35.98
7774;BME280;3931;42.260;23.116;2023-02-22T08:17:30;95511.22;;;20.96;36.05
7774;BME280;3931;42.260;23.116;2023-02-22T08:19:56;95498.16;;;20.14;36.92
7774;BME280;3931;42.260;23.116;2023-02-22T08:22:22;95508.91;;;20.47;36.07
7774;BME280;3931;42.260;23.116;2023-02-22T08:24:49;95509.44;;;20.51;37.06
7774;BME280;3931;42.260;23.116;2023-02-22T08:27:22;95495.53;;;21.26;36.25
7774;BME280;3931;42.260;23.116;2023-02-22T08:29:49;95503.06;;;22.73;34.78
7774;BME280;3931;42.260;23.116;2023-02-22T08:32:15;95498.69;;;21.72;35.16
7774;BME280;3931;42.260;23.116;2023-02-22T08:34:41;95494.41;;;21.99;35.25
7774;BME280;3931;42.260;23.116;2023-02-22T08:37:08;95494.34;;;20.96;35.26
7774;BME280;3931;42.260;23.116;2023-02-22T08:39:34;95489.41;;;21.33;34.09
7774;BME280;3931;42.260;23.116;2023-02-22T08:42:01;95490.50;;;20.46;35.00
7774;BME280;3931;42.260;23.116;2023-02-22T08:44:27;95492.34;;;21.02;34.52
7774;BME280;3931;42.260;23.116;2023-02-22T08:46:53;95490.28;;;20.97;34.22
7774;BME280;3931;42.260;23.116;2023-02-22T08:49:19;95488.44;;;21.58;33.70
7774;BME280;3931;42.260;23.116;2023-02-22T08:51:46;95485.94;;;21.99;33.11
7774;BME280;3931;42.260;23.116;2023-02-22T08:54:12;95481.56;;;21.82;33.63
7774;BME280;3931;42.260;23.116;2023-02-22T08:56:38;95491.06;;;23.36;32.74
7774;BME280;3931;42.260;23.116;2023-02-22T08:59:05;95481.38;;;23.72;31.88
7774;BME280;3931;42.260;23.116;2023-02-22T09:01:31;95473.41;;;24.65;30.90
7774;BME280;3931;42.260;23.116;2023-02-22T09:03:59;95479.09;;;25.32;30.51
7774;BME280;3931;42.260;23.116;2023-02-22T09:06:25;95472.06;;;26.13;29.90
7774;BME280;3931;42.260;23.116;2023-02-22T09:08:51;95465.59;;;25.94;30.00
7774;BME280;3931;42.260;23.116;2023-02-22T09:11:17;95461.44;;;24.53;29.76
7774;BME280;3931;42.260;23.116;2023-02-22T09:13:43;95458.28;;;24.03;31.10
7774;BME280;3931;42.260;23.116;2023-02-22T09:16:10;95466.69;;;24.14;30.60
7774;BME280;3931;42.260;23.116;2023-02-22T09:18:36;95460.28;;;24.68;30.05
7774;BME280;3931;42.260;23.116;2023-02-22T09:21:02;95457.97;;;23.77;31.00
7774;BME280;3931;42.260;23.116;2023-02-22T09:23:29;95458.16;;;23.44;31.00
7774;BME280;3931;42.260;23.116;2023-02-22T09:25:55;95448.72;;;23.76;30.61
7774;BME280;3931;42.260;23.116;2023-02-22T09:28:21;95454.97;;;24.58;30.34
7774;BME280;3931;42.260;23.116;2023-02-22T09:30:47;95456.69;;;24.37;30.41
7774;BME280;3931;42.260;23.116;2023-02-22T09:33:16;95446.81;;;24.25;30.40
7774;BME280;3931;42.260;23.116;2023-02-22T09:35:44;95442.97;;;24.23;30.79
7774;BME280;3931;42.260;23.116;2023-02-22T09:38:12;95444.72;;;23.09;31.22
7774;BME280;3931;42.260;23.116;2023-02-22T09:40:41;95438.78;;;23.64;31.76
7774;BME280;3931;42.260;23.116;2023-02-22T09:43:33;95437.16;;;25.68;30.02
7774;BME280;3931;42.260;23.116;2023-02-22T09:46:12;95432.94;;;26.25;29.04
7774;BME280;3931;42.260;23.116;2023-02-22T09:48:58;95440.53;;;27.01;28.29
7774;BME280;3931;42.260;23.116;2023-02-22T09:51:28;95428.75;;;26.97;28.62
7774;BME280;3931;42.260;23.116;2023-02-22T09:53:59;95427.00;;;27.20;28.83
7774;BME280;3931;42.260;23.116;2023-02-22T09:56:27;95422.38;;;26.07;28.88
7774;BME280;3931;42.260;23.116;2023-02-22T09:58:58;95413.19;;;26.32;29.58
7774;BME280;3931;42.260;23.116;2023-02-22T10:01:30;95400.66;;;27.19;28.77
7774;BME280;3931;42.260;23.116;2023-02-22T10:04:03;95405.53;;;25.26;29.93
7774;BME280;3931;42.260;23.116;2023-02-22T10:06:31;95412.09;;;26.03;30.11
7774;BME280;3931;42.260;23.116;2023-02-22T10:09:00;95409.13;;;27.32;28.50
7774;BME280;3931;42.260;23.116;2023-02-22T10:11:47;95396.78;;;27.30;28.00
7774;BME280;3931;42.260;23.116;2023-02-22T10:14:33;95399.53;;;26.31;29.21
7774;BME280;3931;42.260;23.116;2023-02-22T10:17:09;95391.78;;;25.86;29.11
7774;BME280;3931;42.260;23.116;2023-02-22T10:19:45;95385.56;;;25.38;29.65
7774;BME280;3931;42.260;23.116;2023-02-22T10:22:31;95382.09;;;25.26;30.60
7774;BME280;3931;42.260;23.116;2023-02-22T10:25:02;95373.06;;;26.81;29.22
7774;BME280;3931;42.260;23.116;2023-02-22T10:27:32;95370.75;;;26.92;28.63
7774;BME280;3931;42.260;23.116;2023-02-22T10:30:03;95366.41;;;26.78;28.54
7774;BME280;3931;42.260;23.116;2023-02-22T10:32:36;95360.09;;;27.66;28.27
7774;BME280;3931;42.260;23.116;2023-02-22T10:35:16;95355.47;;;28.17;27.21
7774;BME280;3931;42.260;23.116;2023-02-22T10:37:43;95354.19;;;27.64;27.59
7774;BME280;3931;42.260;23.116;2023-02-22T10:40:13;95341.66;;;28.21;26.47
7774;BME280;3931;42.260;23.116;2023-02-22T10:42:42;95338.81;;;28.70;26.28
7774;BME280;3931;42.260;23.116;2023-02-22T10:45:18;95334.88;;;27.15;26.60
7774;BME280;3931;42.260;23.116;2023-02-22T10:47:45;95328.84;;;26.46;26.63
7774;BME280;3931;42.260;23.116;2023-02-22T10:50:14;95314.41;;;27.30;26.31
7774;BME280;3931;42.260;23.116;2023-02-22T10:52:40;95323.13;;;26.98;26.39
7774;BME280;3931;42.260;23.116;2023-02-22T10:55:12;95316.94;;;26.34;27.25
7774;BME280;3931;42.260;23.116;2023-02-22T10:57:39;95317.34;;;26.91;27.42
7774;BME280;3931;42.260;23.116;2023-02-22T11:00:14;95314.34;;;26.76;27.89
7774;BME280;3931;42.260;23.116;2023-02-22T11:02:50;95309.78;;;27.06;27.14
7774;BME280;3931;42.260;23.116;2023-02-22T11:05:28;95300.81;;;27.70;27.45
7774;BME280;3931;42.260;23.116;2023-02-22T11:08:13;95306.25;;;26.40;27.42
7774;BME280;3931;42.260;23.116;2023-02-22T11:10:40;95308.56;;;25.84;27.66
7774;BME280;3931;42.260;23.116;2023-02-22T11:13:16;95296.09;;;26.19;27.56
7774;BME280;3931;42.260;23.116;2023-02-22T11:15:42;95298.31;;;26.99;27.81
7774;BME280;3931;42.260;23.116;2023-02-22T11:18:21;95288.78;;;26.23;27.54
7774;BME280;3931;42.260;23.116;2023-02-22T11:20:58;95290.25;;;27.78;26.93
7774;BME280;3931;42.260;23.116;2023-02-22T11:23:25;95270.94;;;28.97;25.62
7774;BME280;3931;42.260;23.116;2023-02-22T11:26:00;95278.34;;;28.00;24.27
7774;BME280;3931;42.260;23.116;2023-02-22T11:28:28;95269.59;;;27.98;25.18
7774;BME280;3931;42.260;23.116;2023-02-22T11:31:09;95260.66;;;27.53;26.10
7774;BME280;3931;42.260;23.116;2023-02-22T11:33:36;95268.19;;;27.29;25.90
7774;BME280;3931;42.260;23.116;2023-02-22T11:36:05;95260.19;;;27.28;26.51
7774;BME280;3931;42.260;23.116;2023-02-22T11:38:34;95256.22;;;27.44;26.63
7774;BME280;3931;42.260;23.116;2023-02-22T11:41:10;95259.88;;;27.31;26.91
7774;BME280;3931;42.260;23.116;2023-02-22T11:43:39;95259.22;;;26.19;26.88
7774;BME280;3931;42.260;23.116;2023-02-22T11:46:08;95256.47;;;26.52;27.39
7774;BME280;3931;42.260;23.116;2023-02-22T11:48:39;95242.22;;;28.15;27.41
7774;BME280;3931;42.260;23.116;2023-02-22T11:51:16;95244.00;;;29.05;26.26
7774;BME280;3931;42.260;23.116;2023-02-22T11:54:13;95246.94;;;27.92;26.62
7774;BME280;3931;42.260;23.116;2023-02-22T11:56:48;95235.19;;;28.45;27.35
7774;BME280;3931;42.260;23.116;2023-02-22T11:59:25;95231.53;;;28.72;27.00
7774;BME280;3931;42.260;23.116;2023-02-22T12:01:56;95229.91;;;27.30;27.36
7774;BME280;3931;42.260;23.116;2023-02-22T12:04:46;95236.06;;;28.04;26.99
7774;BME280;3931;42.260;23.116;2023-02-22T12:07:30;95225.31;;;28.10;27.36
7774;BME280;3931;42.260;23.116;2023-02-22T12:10:14;95219.91;;;28.63;26.63
7774;BME280;3931;42.260;23.116;2023-02-22T12:12:56;95225.25;;;28.02;26.59
7774;BME280;3931;42.260;23.116;2023-02-22T12:15:28;95223.75;;;27.19;27.11
7774;BME280;3931;42.260;23.116;2023-02-22T12:18:00;95227.25;;;27.94;27.62
7774;BME280;3931;42.260;23.116;2023-02-22T12:20:35;95210.22;;;28.58;26.70
7774;BME280;3931;42.260;23.116;2023-02-22T12:23:13;95223.56;;;28.07;27.27
7774;BME280;3931;42.260;23.116;2023-02-22T12:25:51;95217.31;;;27.18;28.24
7774;BME280;3931;42.260;23.116;2023-02-22T12:28:26;95206.16;;;27.62;28.67
7774;BME280;3931;42.260;23.116;2023-02-22T12:31:02;95207.28;;;29.75;26.89
7774;BME280;3931;42.260;23.116;2023-02-22T12:33:38;95197.47;;;28.24;27.49
7774;BME280;3931;42.260;23.116;2023-02-22T12:36:10;95201.25;;;27.90;27.18
7774;BME280;3931;42.260;23.116;2023-02-22T12:38:42;95198.78;;;28.15;28.37
7774;BME280;3931;42.260;23.116;2023-02-22T12:41:15;95195.69;;;27.15;27.74
7774;BME280;3931;42.260;23.116;2023-02-22T12:43:48;95194.44;;;27.24;27.72
7774;BME280;3931;42.260;23.116;2023-02-22T12:46:19;95192.38;;;27.94;27.53
7774;BME280;3931;42.260;23.116;2023-02-22T12:48:52;95193.72;;;27.72;27.39
7774;BME280;3931;42.260;23.116;2023-02-22T12:51:27;95191.34;;;27.56;26.60
7774;BME280;3931;42.260;23.116;2023-02-22T12:54:03;95182.84;;;28.55;27.57
7774;BME280;3931;42.260;23.116;2023-02-22T12:56:33;95183.09;;;28.65;26.50
7774;BME280;3931;42.260;23.116;2023-02-22T12:59:08;95176.19;;;26.99;27.69
7774;BME280;3931;42.260;23.116;2023-02-22T13:01:39;95183.63;;;27.92;27.83
7774;BME280;3931;42.260;23.116;2023-02-22T13:04:07;95188.41;;;28.25;27.06
7774;BME280;3931;42.260;23.116;2023-02-22T13:06:44;95179.47;;;27.65;26.96
7774;BME280;3931;42.260;23.116;2023-02-22T13:09:43;95177.78;;;28.26;27.88
7774;BME280;3931;42.260;23.116;2023-02-22T13:12:14;95184.19;;;27.90;27.49
7774;BME280;3931;42.260;23.116;2023-02-22T13:14:49;95184.66;;;27.12;26.83
7774;BME280;3931;42.260;23.116;2023-02-22T13:17:24;95178.38;;;27.47;26.90
7774;BME280;3931;42.260;23.116;2023-02-22T13:19:54;95174.41;;;27.09;27.31
7774;BME280;3931;42.260;23.116;2023-02-22T13:22:26;95176.19;;;28.53;26.76
7774;BME280;3931;42.260;23.116;2023-02-22T13:25:02;95187.28;;;27.30;26.52